createdAt,value
2023-03-27T00:01:13.231Z,14.00
2023-03-27T00:03:41.023Z,17.35
2023-03-27T00:06:11.911Z,12.98
2023-03-27T00:08:39.332Z,9.95
2023-03-27T00:11:08.178Z,17.48
2023-03-27T00:13:49.520Z,14.93
2023-03-27T00:16:22.744Z,11.48
2023-03-27T00:18:50.129Z,17.95
2023-03-27T00:21:17.348Z,14.60
2023-03-27T00:23:44.714Z,11.73
2023-03-27T00:26:12.577Z,15.43
2023-03-27T00:28:40.111Z,11.15
2023-03-27T00:31:11.868Z,10.77
2023-03-27T00:33:39.901Z,15.55
2023-03-27T00:36:07.801Z,13.65
2023-03-27T00:38:35.136Z,18.95
2023-03-27T00:41:03.153Z,16.88
2023-03-27T00:43:36.249Z,17.40
2023-03-27T00:46:15.910Z,9.05
2023-03-27T00:48:47.233Z,13.38
2023-03-27T00:51:15.960Z,12.23
2023-03-27T00:53:44.364Z,15.20
2023-03-27T00:56:12.525Z,10.10
2023-03-27T00:58:46.279Z,13.70
2023-03-27T01:01:15.561Z,15.88
2023-03-27T01:03:46.658Z,18.60
2023-03-27T01:06:17.075Z,17.65
2023-03-27T01:08:46.070Z,12.60
2023-03-27T01:11:28.695Z,12.32
2023-03-27T01:14:37.290Z,13.98
2023-03-27T01:17:25.996Z,12.27
2023-03-27T01:20:14.204Z,20.00
2023-03-27T01:22:47.858Z,11.55
2023-03-27T01:25:15.815Z,20.23
2023-03-27T01:27:52.255Z,13.38
2023-03-27T01:30:40.540Z,10.48
2023-03-27T01:33:40.713Z,15.68
2023-03-27T01:36:45.897Z,18.35
2023-03-27T01:39:32.097Z,14.57
2023-03-27T01:42:18.449Z,16.05
2023-03-27T01:45:06.139Z,12.60
2023-03-27T01:48:00.355Z,14.35
2023-03-27T01:50:42.508Z,13.02
2023-03-27T01:53:20.638Z,17.10
2023-03-27T01:56:10.519Z,17.00
2023-03-27T01:58:46.698Z,12.43
2023-03-27T02:01:24.820Z,16.42
2023-03-27T02:03:54.620Z,9.57
2023-03-27T02:06:26.684Z,10.05
2023-03-27T02:09:17.641Z,14.13
2023-03-27T02:11:50.486Z,14.52
2023-03-27T02:14:21.763Z,15.27
2023-03-27T02:16:53.715Z,14.63
2023-03-27T02:19:23.590Z,10.30
2023-03-27T02:21:50.935Z,10.43
2023-03-27T02:24:18.866Z,11.73
2023-03-27T02:26:50.094Z,12.38
2023-03-27T02:29:24.456Z,10.57
2023-03-27T02:31:54.620Z,13.23
2023-03-27T02:35:10.633Z,17.10
2023-03-27T02:37:50.947Z,17.55
2023-03-27T02:40:39.764Z,17.60
2023-03-27T02:43:37.832Z,14.18
2023-03-27T02:46:27.333Z,14.85
2023-03-27T02:48:59.561Z,11.15
2023-03-27T02:52:04.681Z,15.05
2023-03-27T02:54:36.375Z,14.57
2023-03-27T02:57:08.646Z,10.65
2023-03-27T03:00:03.468Z,9.38
2023-03-27T03:02:38.144Z,17.13
2023-03-27T03:05:12.749Z,9.52
2023-03-27T03:07:40.335Z,13.80
2023-03-27T03:10:11.770Z,14.85
2023-03-27T03:12:39.483Z,12.23
2023-03-27T03:15:11.119Z,18.35
2023-03-27T03:17:38.480Z,13.90
2023-03-27T03:20:08.019Z,13.07
2023-03-27T03:22:36.461Z,10.82
2023-03-27T03:25:04.089Z,13.55
2023-03-27T03:27:34.327Z,8.48
2023-03-27T03:30:09.494Z,5.95
2023-03-27T03:32:55.106Z,13.77
2023-03-27T03:35:24.603Z,12.73
2023-03-27T03:37:53.036Z,16.30
2023-03-27T03:40:21.225Z,11.10
2023-03-27T03:42:52.130Z,11.93
2023-03-27T03:45:24.135Z,8.30
2023-03-27T03:47:51.589Z,12.85
2023-03-27T03:50:18.867Z,11.05
2023-03-27T03:52:47.170Z,13.40
2023-03-27T03:55:18.057Z,7.97
2023-03-27T03:57:47.583Z,18.17
2023-03-27T04:00:22.946Z,12.57
2023-03-27T04:02:53.796Z,15.35
2023-03-27T04:05:22.526Z,12.13
2023-03-27T04:07:53.440Z,18.90
2023-03-27T04:10:48.298Z,17.05
2023-03-27T04:13:34.050Z,12.65
2023-03-27T04:16:11.743Z,8.60
2023-03-27T04:18:43.953Z,8.45
2023-03-27T04:21:18.318Z,13.95
2023-03-27T04:23:48.330Z,11.13
2023-03-27T04:26:26.604Z,17.90
2023-03-27T04:29:12.894Z,7.68
2023-03-27T04:32:05.701Z,12.75
2023-03-27T04:34:42.130Z,15.02
2023-03-27T04:37:09.430Z,12.93
2023-03-27T04:39:42.989Z,8.43
2023-03-27T04:44:39.086Z,15.20
2023-03-27T04:47:08.983Z,15.10
2023-03-27T04:49:39.411Z,12.02
2023-03-27T04:52:18.120Z,10.73
2023-03-27T04:54:46.648Z,12.73
2023-03-27T04:57:15.818Z,12.85
2023-03-27T04:59:43.391Z,13.20
2023-03-27T05:02:43.078Z,9.77
2023-03-27T05:05:17.094Z,16.20
2023-03-27T05:07:45.910Z,13.95
2023-03-27T05:10:21.878Z,14.13
2023-03-27T05:12:52.398Z,12.60
2023-03-27T05:15:21.114Z,14.83
2023-03-27T05:17:55.173Z,12.38
2023-03-27T05:20:25.257Z,10.05
2023-03-27T05:22:54.764Z,15.63
2023-03-27T05:25:26.324Z,7.43
2023-03-27T05:27:54.676Z,14.55
2023-03-27T05:30:24.762Z,14.25
2023-03-27T05:33:02.973Z,9.82
2023-03-27T05:35:30.676Z,11.45
2023-03-27T05:37:59.443Z,10.30
2023-03-27T05:40:32.692Z,9.48
2023-03-27T05:43:00.699Z,13.95
2023-03-27T05:45:31.005Z,14.60
2023-03-27T05:48:01.163Z,10.73
2023-03-27T05:50:32.464Z,13.30
2023-03-27T05:53:02.481Z,13.40
2023-03-27T05:55:37.514Z,19.30
2023-03-27T05:58:06.562Z,15.38
2023-03-27T06:00:34.460Z,18.38
2023-03-27T06:03:03.706Z,12.68
2023-03-27T06:06:00.246Z,11.30
2023-03-27T06:08:34.908Z,10.88
2023-03-27T06:11:08.628Z,13.73
2023-03-27T06:13:40.396Z,13.90
2023-03-27T06:16:10.636Z,9.00
2023-03-27T06:18:47.752Z,15.52
2023-03-27T06:21:17.536Z,11.80
2023-03-27T06:23:45.881Z,19.00
2023-03-27T06:26:15.573Z,19.33
2023-03-27T06:28:43.587Z,14.82
2023-03-27T06:31:14.862Z,13.70
2023-03-27T06:34:03.976Z,14.00
2023-03-27T06:36:51.609Z,10.98
2023-03-27T06:39:19.211Z,13.40
2023-03-27T06:41:49.890Z,11.93
2023-03-27T06:44:27.401Z,12.75
2023-03-27T06:47:00.815Z,11.75
2023-03-27T06:49:35.892Z,11.60
2023-03-27T06:52:11.387Z,12.35
2023-03-27T06:54:42.591Z,13.82
2023-03-27T06:57:09.891Z,12.65
2023-03-27T06:59:49.278Z,24.90
2023-03-27T07:02:21.351Z,10.93
2023-03-27T07:05:08.482Z,15.60
2023-03-27T07:07:41.675Z,11.00
2023-03-27T07:10:11.567Z,15.45
2023-03-27T07:12:41.579Z,13.30
2023-03-27T07:15:10.564Z,12.48
2023-03-27T07:17:47.695Z,9.63
2023-03-27T07:20:17.799Z,12.98
2023-03-27T07:22:45.177Z,11.52
2023-03-27T07:25:29.066Z,11.40
2023-03-27T07:28:00.176Z,13.45
2023-03-27T07:30:28.499Z,19.45
2023-03-27T07:32:57.882Z,8.95
2023-03-27T07:35:25.677Z,8.80
2023-03-27T07:38:11.912Z,9.75
2023-03-27T07:41:05.843Z,11.73
2023-03-27T07:44:08.358Z,9.93
2023-03-27T07:46:46.858Z,18.27
2023-03-27T07:49:14.278Z,9.23
2023-03-27T07:51:41.633Z,8.95
2023-03-27T07:54:13.259Z,6.90
2023-03-27T07:56:46.310Z,8.77
2023-03-27T07:59:22.586Z,8.73
2023-03-27T08:01:50.721Z,7.13
2023-03-27T08:04:20.427Z,8.97
2023-03-27T08:07:02.321Z,11.82
2023-03-27T08:09:30.417Z,9.82
2023-03-27T08:11:57.895Z,10.65
2023-03-27T08:14:28.455Z,9.57
2023-03-27T08:17:12.491Z,10.20
2023-03-27T08:19:45.504Z,9.10
2023-03-27T08:22:14.004Z,11.85
2023-03-27T08:25:00.662Z,12.55
2023-03-27T08:27:28.747Z,11.13
2023-03-27T08:29:57.386Z,11.63
2023-03-27T08:32:25.103Z,6.35
2023-03-27T08:37:23.984Z,8.45
2023-03-27T08:40:26.152Z,8.00
2023-03-27T08:43:11.884Z,11.50
2023-03-27T08:45:49.879Z,8.57
2023-03-27T08:48:27.402Z,6.75
2023-03-27T08:50:56.346Z,10.20
2023-03-27T08:53:44.999Z,6.80
2023-03-27T08:56:14.910Z,11.05
2023-03-27T08:58:45.059Z,8.40
2023-03-27T09:01:22.866Z,11.63
2023-03-27T09:04:02.885Z,7.53
2023-03-27T09:06:48.305Z,7.75
2023-03-27T09:09:42.485Z,7.93
2023-03-27T09:12:40.249Z,9.82
2023-03-27T09:15:17.569Z,7.43
2023-03-27T09:18:01.991Z,7.10
2023-03-27T09:20:43.375Z,8.63
2023-03-27T09:23:21.078Z,7.22
2023-03-27T09:26:37.134Z,5.60
2023-03-27T09:31:54.040Z,9.25
2023-03-27T09:34:29.305Z,13.30
2023-03-27T09:36:59.223Z,7.88
2023-03-27T09:39:32.729Z,8.10
2023-03-27T09:42:31.053Z,8.18
2023-03-27T09:45:02.438Z,8.95
2023-03-27T09:47:38.586Z,9.65
2023-03-27T09:50:28.363Z,5.80
2023-03-27T09:53:12.447Z,10.85
2023-03-27T09:56:09.871Z,5.72
2023-03-27T09:58:46.345Z,6.25
2023-03-27T10:05:12.085Z,9.48
2023-03-27T10:07:42.732Z,6.32
2023-03-27T10:10:42.527Z,5.57
2023-03-27T10:13:27.911Z,6.07
2023-03-27T10:16:07.664Z,6.55
2023-03-27T10:18:46.536Z,11.07
2023-03-27T10:21:24.337Z,4.75
2023-03-27T10:23:52.508Z,5.43
2023-03-27T10:26:56.525Z,7.95
2023-03-27T10:29:26.760Z,5.00
2023-03-27T10:31:56.726Z,5.22
2023-03-27T10:34:58.379Z,5.70
2023-03-27T10:37:54.360Z,6.22
2023-03-27T10:40:30.955Z,5.85
2023-03-27T10:43:07.206Z,7.60
2023-03-27T10:45:46.506Z,7.75
2023-03-27T10:48:30.078Z,6.65
2023-03-27T10:51:05.370Z,6.85
2023-03-27T10:53:57.500Z,10.95
2023-03-27T10:56:49.670Z,11.25
2023-03-27T10:59:42.945Z,6.35
2023-03-27T11:02:24.387Z,5.45
2023-03-27T11:04:58.218Z,6.60
2023-03-27T11:07:41.836Z,7.53
2023-03-27T11:10:18.556Z,5.85
2023-03-27T11:12:54.207Z,3.92
2023-03-27T11:15:28.007Z,5.45
2023-03-27T11:18:06.924Z,4.32
2023-03-27T11:20:56.470Z,7.32
2023-03-27T11:23:41.301Z,7.15
2023-03-27T11:26:28.397Z,4.88
2023-03-27T11:28:57.738Z,7.82
2023-03-27T11:31:41.065Z,6.40
2023-03-27T11:34:28.576Z,5.45
2023-03-27T11:37:20.262Z,6.15
2023-03-27T11:40:07.545Z,10.57
2023-03-27T11:42:40.556Z,5.97
2023-03-27T11:45:21.482Z,6.47
2023-03-27T11:48:19.398Z,7.40
2023-03-27T11:51:00.115Z,5.57
2023-03-27T11:53:36.828Z,9.75
2023-03-27T11:56:13.398Z,6.35
2023-03-27T11:59:07.280Z,5.95
2023-03-27T12:01:47.554Z,7.55
2023-03-27T12:04:33.934Z,8.20
2023-03-27T12:07:47.886Z,4.45
2023-03-27T12:10:34.231Z,4.80
2023-03-27T12:13:41.623Z,7.03
2023-03-27T12:16:48.122Z,4.82
2023-03-27T12:19:56.560Z,5.13
2023-03-27T12:22:43.736Z,6.53
2023-03-27T12:25:32.718Z,5.35
2023-03-27T12:28:30.720Z,6.22
2023-03-27T12:31:19.815Z,3.88
2023-03-27T12:33:55.737Z,6.72
2023-03-27T12:36:26.287Z,6.68
2023-03-27T12:38:56.821Z,10.73
2023-03-27T12:41:33.480Z,8.60
2023-03-27T12:44:19.035Z,5.38
2023-03-27T12:47:27.262Z,12.52
2023-03-27T12:50:19.149Z,8.00
2023-03-27T12:52:47.304Z,4.63
2023-03-27T12:55:19.552Z,6.90
2023-03-27T12:58:00.654Z,4.47
2023-03-27T13:00:54.170Z,6.57
2023-03-27T13:03:44.288Z,6.07
2023-03-27T13:06:37.267Z,7.78
2023-03-27T13:09:14.652Z,5.72
2023-03-27T13:12:20.730Z,4.45
2023-03-27T13:15:06.912Z,5.78
2023-03-27T13:17:42.401Z,4.35
2023-03-27T13:20:34.811Z,4.88
2023-03-27T13:23:10.592Z,4.22
2023-03-27T13:26:17.274Z,6.70
2023-03-27T13:28:51.226Z,8.30
2023-03-27T13:31:57.086Z,6.82
2023-03-27T13:34:39.903Z,4.03
2023-03-27T13:37:16.471Z,5.05
2023-03-27T13:39:59.553Z,5.10
2023-03-27T13:42:33.012Z,7.00
2023-03-27T13:45:23.697Z,6.15
2023-03-27T13:48:40.083Z,3.90
2023-03-27T13:51:22.981Z,11.05
2023-03-27T13:54:18.809Z,6.20
2023-03-27T13:57:25.904Z,5.05
2023-03-27T14:00:07.702Z,7.45
2023-03-27T14:03:03.987Z,3.72
2023-03-27T14:06:01.163Z,11.07
2023-03-27T14:08:39.900Z,9.80
2023-03-27T14:11:53.122Z,13.40
2023-03-27T14:14:51.298Z,4.97
2023-03-27T14:17:31.346Z,7.72
2023-03-27T14:20:11.788Z,4.63
2023-03-27T14:23:05.806Z,11.63
2023-03-27T14:25:56.441Z,5.13
2023-03-27T14:28:51.392Z,5.65
2023-03-27T14:31:29.508Z,4.55
2023-03-27T14:34:12.189Z,4.28
2023-03-27T14:36:50.312Z,5.28
2023-03-27T14:39:31.049Z,11.77
2023-03-27T14:42:15.993Z,6.63
2023-03-27T14:47:17.645Z,7.43
2023-03-27T14:49:49.119Z,4.68
2023-03-27T14:52:27.722Z,3.80
2023-03-27T14:55:34.621Z,7.20
2023-03-27T14:58:21.727Z,5.18
2023-03-27T15:01:02.009Z,7.60
2023-03-27T15:03:35.300Z,5.53
2023-03-27T15:06:26.509Z,4.95
2023-03-27T15:09:05.834Z,5.63
2023-03-27T15:11:56.300Z,3.05
2023-03-27T15:14:29.225Z,6.53
2023-03-27T15:17:01.064Z,5.97
2023-03-27T15:19:31.354Z,3.25
2023-03-27T15:25:00.000Z,4.47
2023-03-27T15:27:36.066Z,6.82
2023-03-27T15:30:18.031Z,3.90
2023-03-27T15:32:50.894Z,5.53
2023-03-27T15:35:22.278Z,3.55
2023-03-27T15:37:50.367Z,5.93
2023-03-27T15:40:26.688Z,4.45
2023-03-27T15:43:01.714Z,9.02
2023-03-27T15:45:38.165Z,4.20
2023-03-27T15:48:24.247Z,7.95
2023-03-27T15:51:07.765Z,6.40
2023-03-27T15:53:46.565Z,4.07
2023-03-27T15:56:13.823Z,5.75
2023-03-27T15:58:47.722Z,7.25
2023-03-27T16:01:19.908Z,4.90
2023-03-27T16:03:48.558Z,4.88
2023-03-27T16:06:27.004Z,5.15
2023-03-27T16:08:55.048Z,9.00
2023-03-27T16:11:40.519Z,4.07
2023-03-27T16:14:42.346Z,6.38
2023-03-27T16:17:14.725Z,5.47
2023-03-27T16:20:01.978Z,8.27
2023-03-27T16:22:31.870Z,9.63
2023-03-27T16:25:00.834Z,4.80
2023-03-27T16:27:37.243Z,4.30
2023-03-27T16:30:06.683Z,4.25
2023-03-27T16:32:34.437Z,5.20
2023-03-27T16:35:02.274Z,4.22
2023-03-27T16:37:29.631Z,7.28
2023-03-27T16:39:58.106Z,3.67
2023-03-27T16:42:26.422Z,6.47
2023-03-27T16:44:54.135Z,11.60
2023-03-27T16:47:23.476Z,5.75
2023-03-27T16:50:08.182Z,3.38
2023-03-27T16:52:38.021Z,4.13
2023-03-27T16:55:07.502Z,3.85
2023-03-27T16:57:36.380Z,6.50
2023-03-27T17:00:05.442Z,4.10
2023-03-27T17:02:34.820Z,6.20
2023-03-27T17:05:04.280Z,4.28
2023-03-27T17:07:31.686Z,4.40
2023-03-27T17:09:59.427Z,5.80
2023-03-27T17:12:28.736Z,4.82
2023-03-27T17:14:56.688Z,4.32
2023-03-27T17:17:24.190Z,6.18
2023-03-27T17:19:51.562Z,4.47
2023-03-27T17:22:18.948Z,2.80
2023-03-27T17:24:56.236Z,6.15
2023-03-27T17:27:26.867Z,6.30
2023-03-27T17:29:56.455Z,4.57
2023-03-27T17:32:25.431Z,4.28
2023-03-27T17:34:56.187Z,4.88
2023-03-27T17:37:23.915Z,4.75
2023-03-27T17:39:51.483Z,8.95
2023-03-27T17:42:22.087Z,8.43
2023-03-27T17:44:49.535Z,8.98
2023-03-27T17:47:17.123Z,5.65
2023-03-27T17:49:45.253Z,4.75
2023-03-27T17:52:13.415Z,8.32
2023-03-27T17:54:40.789Z,6.40
2023-03-27T17:57:08.211Z,8.35
2023-03-27T17:59:36.406Z,8.07
2023-03-27T18:02:04.020Z,5.40
2023-03-27T18:04:31.723Z,6.68
2023-03-27T18:06:59.079Z,6.40
2023-03-27T18:09:26.573Z,5.60
2023-03-27T18:11:53.984Z,9.07
2023-03-27T18:14:21.414Z,5.43
2023-03-27T18:16:48.798Z,4.47
2023-03-27T18:19:16.219Z,6.00
2023-03-27T18:21:43.623Z,8.38
2023-03-27T18:24:11.174Z,10.80
2023-03-27T18:26:38.431Z,5.05
2023-03-27T18:29:05.658Z,4.80
2023-03-27T18:31:33.173Z,7.13
2023-03-27T18:34:01.109Z,4.40
2023-03-27T18:36:28.424Z,6.22
2023-03-27T18:38:56.590Z,8.75
2023-03-27T18:41:24.156Z,5.88
2023-03-27T18:43:51.468Z,5.07
2023-03-27T18:46:20.479Z,6.55
2023-03-27T18:48:50.856Z,6.13
2023-03-27T18:51:21.030Z,6.95
2023-03-27T18:56:17.268Z,10.63
2023-03-27T18:58:44.717Z,4.82
2023-03-27T19:01:12.560Z,4.20
2023-03-27T19:03:40.674Z,5.20
2023-03-27T19:06:09.669Z,5.85
2023-03-27T19:08:37.905Z,9.45
2023-03-27T19:11:06.330Z,9.80
2023-03-27T19:13:51.978Z,6.82
2023-03-27T19:16:30.821Z,5.07
2023-03-27T19:19:16.677Z,9.32
2023-03-27T19:22:05.961Z,10.60
2023-03-27T19:24:43.644Z,7.65
2023-03-27T19:27:23.956Z,7.93
2023-03-27T19:29:53.063Z,6.65
2023-03-27T19:32:21.111Z,6.53
2023-03-27T19:34:48.477Z,10.15
2023-03-27T19:37:15.893Z,10.10
2023-03-27T19:39:43.154Z,8.73
2023-03-27T19:42:11.050Z,8.70
2023-03-27T19:44:38.388Z,7.10
2023-03-27T19:47:07.886Z,6.20
2023-03-27T19:49:38.278Z,6.88
2023-03-27T19:52:19.749Z,7.43
2023-03-27T19:54:47.291Z,6.90
2023-03-27T19:57:14.814Z,6.75
2023-03-27T19:59:42.081Z,5.88
2023-03-27T20:02:11.908Z,5.43
2023-03-27T20:04:39.573Z,6.45
2023-03-27T20:07:10.195Z,7.95
2023-03-27T20:09:37.552Z,11.93
2023-03-27T20:12:05.329Z,9.02
2023-03-27T20:14:32.844Z,8.07
2023-03-27T20:17:00.320Z,5.88
2023-03-27T20:19:30.483Z,7.20
2023-03-27T20:22:00.196Z,6.20
2023-03-27T20:24:28.949Z,6.00
2023-03-27T20:26:59.531Z,7.47
2023-03-27T20:29:26.915Z,8.63
2023-03-27T20:31:54.275Z,7.50
2023-03-27T20:34:22.748Z,7.90
2023-03-27T20:36:52.897Z,8.38
2023-03-27T20:39:33.491Z,5.50
2023-03-27T20:42:00.740Z,8.05
2023-03-27T20:44:35.994Z,6.83
2023-03-27T20:47:10.917Z,5.97
2023-03-27T20:49:42.995Z,8.02
2023-03-27T20:52:12.886Z,6.22
2023-03-27T20:54:40.628Z,7.22
2023-03-27T20:59:37.970Z,11.63
2023-03-27T21:02:05.562Z,6.97
2023-03-27T21:04:33.001Z,6.10
2023-03-27T21:07:00.274Z,7.88
2023-03-27T21:09:27.880Z,8.95
2023-03-27T21:11:56.018Z,6.43
2023-03-27T21:14:23.788Z,7.88
2023-03-27T21:16:52.142Z,8.13
2023-03-27T21:21:49.390Z,10.05
2023-03-27T21:24:16.828Z,7.70
2023-03-27T21:26:44.032Z,8.90
2023-03-27T21:29:11.498Z,6.10
2023-03-27T21:31:39.879Z,6.05
2023-03-27T21:34:07.591Z,5.57
2023-03-27T21:36:35.469Z,8.07
2023-03-27T21:39:02.829Z,11.38
2023-03-27T21:41:31.014Z,13.93
2023-03-27T21:43:58.243Z,7.63
2023-03-27T21:46:25.897Z,8.80
2023-03-27T21:48:53.290Z,9.85
2023-03-27T21:51:20.535Z,9.15
2023-03-27T21:53:47.961Z,7.38
2023-03-27T21:56:15.355Z,7.50
2023-03-27T21:58:42.559Z,6.20
2023-03-27T22:01:09.869Z,7.82
2023-03-27T22:03:37.317Z,6.50
2023-03-27T22:06:11.862Z,7.78
2023-03-27T22:08:42.172Z,8.25
2023-03-27T22:11:11.009Z,7.57
2023-03-27T22:13:39.007Z,8.45
2023-03-27T22:16:13.901Z,9.98
2023-03-27T22:18:42.553Z,12.52
2023-03-27T22:21:26.008Z,14.90
2023-03-27T22:23:54.934Z,13.60
2023-03-27T22:26:24.878Z,9.38
2023-03-27T22:28:52.763Z,13.75
2023-03-27T22:31:21.365Z,11.88
2023-03-27T22:33:48.977Z,9.93
2023-03-27T22:36:16.616Z,10.25
2023-03-27T22:38:43.835Z,10.52
2023-03-27T22:41:12.820Z,10.65
2023-03-27T22:43:40.357Z,10.93
2023-03-27T22:46:13.005Z,7.55
2023-03-27T22:48:40.774Z,12.30
2023-03-27T22:51:09.010Z,11.68
2023-03-27T22:53:39.446Z,12.45
2023-03-27T22:56:07.818Z,8.43
2023-03-27T22:58:35.220Z,12.73
2023-03-27T23:01:03.591Z,10.98
2023-03-27T23:03:31.296Z,8.48
2023-03-27T23:05:58.823Z,8.63
2023-03-27T23:08:28.239Z,11.48
2023-03-27T23:10:59.750Z,8.93
2023-03-27T23:13:28.478Z,6.95
2023-03-27T23:15:56.122Z,11.95
2023-03-27T23:18:24.865Z,9.80
2023-03-27T23:21:05.393Z,6.28
2023-03-27T23:23:34.360Z,8.90
2023-03-27T23:26:02.901Z,10.35
2023-03-27T23:28:33.009Z,7.90
2023-03-27T23:31:02.364Z,9.45
2023-03-27T23:33:34.629Z,10.60
2023-03-27T23:36:17.037Z,9.43
2023-03-27T23:38:44.487Z,9.30
2023-03-27T23:41:13.398Z,9.23
2023-03-27T23:43:40.704Z,7.32
2023-03-27T23:46:10.570Z,8.38
2023-03-27T23:51:06.760Z,10.32
2023-03-27T23:53:35.136Z,9.43
2023-03-27T23:56:03.164Z,7.68
2023-03-27T23:58:33.691Z,9.50
